MSC Oscar — 3FBT7 — position and weather

sailwx.info

Track history (hours):
 
Tides and Currents Weather Stations Pressure Air Temp Water Temp Dewpoint Dewpoint Depression Visibility Wind Speed Wind Dir Waves Ship Positions

MSC Oscar

Last reported at 2017-Sep-13 23:13 UTC. Time now 2017-Sep-26 18:31 UTC.
Position N 35°31' E 017°43'.
Warning: this ship's position is 12 days out of date.

Length 396 m; draft 15 m.

Type: Ship (hazmat cat A). MMSI: 355906000.

Date/timePositionNaut miles runAvg speedWind from/ knotsBaromVisibWave heightAir tempDewpointWater temp
2017-Sep-13 23:13N 35°31' E 017°43'518.3
2017-Sep-13 22:57N 35°32' E 017°38'918.5
2017-Sep-13 22:27N 35°34' E 017°27'818.1
2017-Sep-13 22:01N 35°36' E 017°17'1318.0
2017-Sep-13 21:19N 35°40' E 017°02'2818.2
2017-Sep-13 19:47N 35°47' E 016°29'518.2
2017-Sep-13 19:30N 35°48' E 016°23'1318.0
2017-Sep-13 18:46N 35°52' E 016°07'518.0
2017-Sep-13 18:30N 35°53' E 016°01'1117.6
2017-Sep-13 17:52N 35°56' E 015°48'717.7
2017-Sep-13 17:30N 35°57' E 015°40'917.9
2017-Sep-13 17:00N 35°60' E 015°30'917.7
2017-Sep-13 16:30N 36°02' E 015°19'918.2
2017-Sep-13 15:59N 36°04' E 015°08'918.2
2017-Sep-13 15:29N 36°07' E 014°57'918.0
2017-Sep-13 15:00N 36°09' E 014°46'918.0
2017-Sep-13 14:30N 36°11' E 014°36'918.0
2017-Sep-13 14:00N 36°14' E 014°25'918.1
2017-Sep-13 13:30N 36°18' E 014°15'918.2
2017-Sep-13 13:01N 36°21' E 014°05'918.2
2017-Sep-13 12:30N 36°25' E 013°54'918.5
2017-Sep-13 12:00N 36°29' E 013°44'918.3
2017-Sep-13 11:29N 36°32' E 013°33'918.2
2017-Sep-13 11:00N 36°36' E 013°23'1018.3
2017-Sep-13 10:26N 36°40' E 013°11'5118.2
2017-Sep-13 07:38N 37°00' E 012°13'7117.9
2017-Sep-13 03:40N 37°36' E 010°55'318.6
2017-Sep-13 03:30N 37°37' E 010°52'39018.0
2017-Sep-12 05:49N 37°10' E 002°42'618.3
2017-Sep-12 05:30N 37°09' E 002°35'918.4
2017-Sep-12 05:00N 37°08' E 002°23'918.7
2017-Sep-12 04:30N 37°07' E 002°12'918.6
2017-Sep-12 04:00N 37°05' E 002°00'918.5
2017-Sep-12 03:30N 37°04' E 001°49'918.6
2017-Sep-12 03:00N 37°03' E 001°37'918.2
2017-Sep-12 02:31N 37°01' E 001°26'917.7
2017-Sep-12 02:01N 36°59' E 001°15'918.0
2017-Sep-12 01:31N 36°57' E 001°04'918.1
2017-Sep-12 01:01N 36°55' E 000°54'918.3
2017-Sep-12 00:30N 36°52' E 000°43'918.6
2017-Sep-12 00:00N 36°49' E 000°31'918.6
2017-Sep-11 23:31N 36°47' E 000°20'918.6
2017-Sep-11 23:01N 36°44' E 000°09'918.3
2017-Sep-11 22:31N 36°41' W 000°02'1118.5
2017-Sep-11 21:54N 36°39' W 000°15'718.3
2017-Sep-11 21:31N 36°37' W 000°24'1218.2
2017-Sep-11 20:52N 36°34' W 000°38'618.0
2017-Sep-11 20:31N 36°32' W 000°46'2617.9
2017-Sep-11 19:04N 36°25' W 001°17'518.1
2017-Sep-11 18:48N 36°24' W 001°22'518.2
2017-Sep-11 18:30N 36°22' W 001°29'918.1
2017-Sep-11 18:00N 36°20' W 001°40'918.1
2017-Sep-11 17:30N 36°17' W 001°50'918.0
2017-Sep-11 17:00N 36°15' W 002°01'918.1
2017-Sep-11 16:30N 36°14' W 002°12'14218.3
2017-Sep-11 08:45N 36°00' W 005°07'520.0
2017-Sep-11 08:31N 35°60' W 005°13'1019.8
2017-Sep-11 08:01N 35°58' W 005°25'8718.5
2017-Sep-11 03:19N 36°03' W 007°12'618.1
2017-Sep-11 03:00N 36°05' W 007°19'4517.8
2017-Sep-11 00:28N 36°17' W 008°13'818.0
2017-Sep-11 00:01N 36°20' W 008°23'917.9
2017-Sep-10 23:30N 36°22' W 008°34'1018.0
2017-Sep-10 22:58N 36°25' W 008°45'818.1
2017-Sep-10 22:30N 36°28' W 008°55'918.3
2017-Sep-10 22:00N 36°31' W 009°05'918.4
2017-Sep-10 21:30N 36°35' W 009°16'918.4
2017-Sep-10 21:01N 36°41' W 009°24'1018.1
2017-Sep-10 20:27N 36°49' W 009°32'818.3
2017-Sep-10 20:01N 36°57' W 009°35'3318.1
2017-Sep-10 18:11N 37°29' W 009°46'318.5
2017-Sep-10 18:00N 37°32' W 009°47'918.6
2017-Sep-10 17:30N 37°41' W 009°50'918.3
2017-Sep-10 17:01N 37°50' W 009°53'918.1
2017-Sep-10 16:31N 37°59' W 009°55'918.2
2017-Sep-10 16:01N 38°08' W 009°57'917.8
2017-Sep-10 15:31N 38°17' W 009°59'917.8
2017-Sep-10 15:01N 38°25' W 010°02'1818.5
2017-Sep-10 14:01N 38°43' W 010°06'918.6
2017-Sep-10 13:30N 38°53' W 010°07'918.6
2017-Sep-10 13:00N 39°02' W 010°07'918.6
2017-Sep-10 12:31N 39°11' W 010°07'1018.9
2017-Sep-10 12:00N 39°21' W 010°06'918.6
2017-Sep-10 11:30N 39°30' W 010°06'65018.0
2017-Sep-08 23:20N 49°31' W 004°17'719.0
2017-Sep-08 22:57N 49°34' W 004°07'818.9
2017-Sep-08 22:31N 49°38' W 003°55'918.8
2017-Sep-08 22:00N 49°43' W 003°43'918.5
2017-Sep-08 21:31N 49°47' W 003°30'918.4
2017-Sep-08 21:01N 49°52' W 003°18'918.2
2017-Sep-08 20:31N 49°56' W 003°05'917.7
2017-Sep-08 20:01N 49°60' W 002°53'917.6
2017-Sep-08 19:31N 50°02' W 002°40'1617.7
2017-Sep-08 18:36N 50°06' W 002°15'517.8
2017-Sep-08 18:20N 50°08' W 002°09'618.2
2017-Sep-08 18:00N 50°11' W 002°00'918.1
2017-Sep-08 17:31N 50°14' W 001°47'918.3
2017-Sep-08 17:00N 50°17' W 001°33'1019.2
2017-Sep-08 16:30N 50°19' W 001°19'1019.9
2017-Sep-08 16:00N 50°22' W 001°04'1019.6
2017-Sep-08 15:30N 50°25' W 000°49'919.0
2017-Sep-08 15:00N 50°26' W 000°35'1019.6
2017-Sep-08 14:30N 50°29' W 000°19'1019.3
2017-Sep-08 14:01N 50°30' W 000°05'919.0
2017-Sep-08 13:31N 50°32' E 000°10'918.3
2017-Sep-08 13:01N 50°35' E 000°24'917.8
2017-Sep-08 12:31N 50°38' E 000°37'918.3
2017-Sep-08 12:01N 50°43' E 000°49'917.9
2017-Sep-08 11:31N 50°48' E 001°01'917.8
2017-Sep-08 11:00N 50°53' E 001°13'917.4
2017-Sep-08 10:31N 50°58' E 001°23'1019.1
2017-Sep-08 10:01N 51°05' E 001°33'1020.6
2017-Sep-08 09:31N 51°12' E 001°45'1020.9
2017-Sep-08 09:01N 51°21' E 001°54'1020.5
2017-Sep-08 08:31N 51°30' E 002°01'1019.1
2017-Sep-08 08:00N 51°37' E 002°12'918.9
2017-Sep-08 07:30N 51°44' E 002°22'1318.6
2017-Sep-08 06:50N 51°53' E 002°36'2317.5
2017-Sep-08 05:32N 52°03' E 003°10'618.1
2017-Sep-08 05:11N 52°03' E 003°20'417.0
2017-Sep-08 04:56N 52°03' E 003°27'615.2
2017-Sep-08 04:31N 52°03' E 003°37'713.7
2017-Sep-08 04:00N 52°02' E 003°49'4 7.6
2017-Sep-08 03:30N 52°02' E 003°55'4 7.6
2017-Sep-08 03:00N 52°00' E 004°00'4 7.2
2017-Sep-08 02:30N 51°58' E 004°05'2 3.3
2017-Sep-08 02:00N 51°58' E 004°03'2 3.3
2017-Sep-08 01:30N 51°58' E 003°60'1 1.6
2017-Sep-08 00:59N 51°57' E 004°00'0 0.1
2017-Sep-08 00:29N 51°57' E 004°00'0 0.0
2017-Sep-07 23:59N 51°57' E 004°00'0 0.0
2017-Sep-07 23:29N 51°57' E 004°00'0 0.0
2017-Sep-07 22:59N 51°57' E 004°00'0 0.0
2017-Sep-07 22:30N 51°57' E 004°00'0 0.0
2017-Sep-07 21:59N 51°57' E 004°00'0 0.0
2017-Sep-07 21:29N 51°57' E 004°00'0 0.0
2017-Sep-07 20:59N 51°57' E 004°00'0 0.0
2017-Sep-07 20:29N 51°57' E 004°00'0 0.0
2017-Sep-07 19:59N 51°57' E 004°00'0 0.0
2017-Sep-07 19:29N 51°57' E 004°00'0 0.0
2017-Sep-07 18:59N 51°57' E 004°00'0 0.0
2017-Sep-07 18:29N 51°57' E 004°00'0 0.0
2017-Sep-07 17:59N 51°57' E 004°00'0 0.0
2017-Sep-07 17:30N 51°57' E 004°00'0 0.0
2017-Sep-07 16:59N 51°57' E 004°00'0 0.0
2017-Sep-07 16:29N 51°57' E 004°00'0 0.0
2017-Sep-07 15:59N 51°57' E 004°00'0 0.0
2017-Sep-07 15:29N 51°57' E 004°00'0 0.0
2017-Sep-07 14:59N 51°57' E 004°00'0 0.0
2017-Sep-07 14:29N 51°57' E 004°00'0 0.0
2017-Sep-07 13:59N 51°57' E 004°00'0 0.0
2017-Sep-07 13:29N 51°57' E 004°00'0 0.0
2017-Sep-07 12:59N 51°57' E 004°00'0 0.0
2017-Sep-07 12:29N 51°57' E 004°00'0 0.0
2017-Sep-07 11:59N 51°57' E 004°00'0 0.0
2017-Sep-07 11:29N 51°57' E 004°00'0 0.0
2017-Sep-07 10:59N 51°57' E 004°00'0 0.0
2017-Sep-07 10:29N 51°57' E 004°00'0 0.0
2017-Sep-07 09:59N 51°57' E 004°00'0 0.0
2017-Sep-07 09:29N 51°57' E 004°00'0 0.0
2017-Sep-07 08:59N 51°57' E 004°00'0 0.0
2017-Sep-07 08:29N 51°57' E 004°00'0 0.0
2017-Sep-07 07:59N 51°57' E 004°00'0 0.0
2017-Sep-07 07:29N 51°57' E 004°00'0 0.0
2017-Sep-07 06:59N 51°57' E 004°00'0 0.0
2017-Sep-07 06:29N 51°57' E 004°00'0 0.0
2017-Sep-07 05:59N 51°57' E 004°00'0 0.0
2017-Sep-07 05:29N 51°57' E 004°00'0 0.0
2017-Sep-07 04:59N 51°57' E 004°00'0 0.0
2017-Sep-07 04:29N 51°57' E 004°00'0 0.0
2017-Sep-07 03:59N 51°57' E 004°00'0 0.0
2017-Sep-07 03:29N 51°57' E 004°00'0 0.0
2017-Sep-07 02:59N 51°57' E 004°00'0 0.0
2017-Sep-07 02:29N 51°57' E 004°00'0 0.0
2017-Sep-07 01:59N 51°57' E 004°00'0 0.0
2017-Sep-07 01:29N 51°57' E 004°00'0 0.0
2017-Sep-07 00:59N 51°57' E 004°00'0 0.0
2017-Sep-07 00:29N 51°57' E 004°00'0 0.0
2017-Sep-06 23:59N 51°57' E 004°00'0 0.0
2017-Sep-06 23:29N 51°57' E 004°00'0 0.0
2017-Sep-06 22:59N 51°57' E 004°00'0 0.0
2017-Sep-06 22:29N 51°57' E 004°00'0 0.0
2017-Sep-06 21:59N 51°57' E 004°00'0 0.0
2017-Sep-06 21:29N 51°57' E 004°00'0 0.0
2017-Sep-06 20:59N 51°57' E 004°00'0 0.0
2017-Sep-06 20:29N 51°57' E 004°00'0 0.0
2017-Sep-06 19:59N 51°57' E 004°00'0 0.0
2017-Sep-06 19:29N 51°57' E 004°00'0 0.0
2017-Sep-06 18:59N 51°57' E 004°00'0 0.0
2017-Sep-06 18:29N 51°57' E 004°00'0 0.0
2017-Sep-06 17:59N 51°57' E 004°00'0 0.0
2017-Sep-06 17:29N 51°57' E 004°00'0 0.0
2017-Sep-06 16:59N 51°57' E 004°00'0 0.0
2017-Sep-06 16:29N 51°57' E 004°00'0 0.0
2017-Sep-06 15:59N 51°57' E 004°00'0 0.0
2017-Sep-06 15:29N 51°57' E 004°00'0 0.0
2017-Sep-06 14:59N 51°57' E 004°00'0 0.0
2017-Sep-06 14:29N 51°57' E 004°00'0 0.0
2017-Sep-06 13:59N 51°57' E 004°00'0 0.0
2017-Sep-06 13:29N 51°57' E 004°00'0 0.0
2017-Sep-06 12:59N 51°57' E 004°00'0 0.0
2017-Sep-06 12:29N 51°57' E 004°00'0 0.0
2017-Sep-06 11:59N 51°57' E 004°00'0 0.0
2017-Sep-06 11:29N 51°57' E 004°00'0 0.0
2017-Sep-06 10:56N 51°57' E 004°00'0 0.0
2017-Sep-06 10:29N 51°57' E 004°00'0 0.0
2017-Sep-06 09:56N 51°57' E 004°00'0 0.0
2017-Sep-06 09:29N 51°57' E 004°00'0 0.0
2017-Sep-06 08:59N 51°57' E 004°00'0 0.0
2017-Sep-06 08:29N 51°57' E 004°00'0 0.0
2017-Sep-06 07:59N 51°57' E 004°00'0 0.0
2017-Sep-06 07:29N 51°57' E 004°00'0 0.0
2017-Sep-06 06:59N 51°57' E 004°00'0 0.0
2017-Sep-06 06:29N 51°57' E 004°00'0 0.0
2017-Sep-06 05:59N 51°57' E 004°00'0 0.0
2017-Sep-06 05:29N 51°57' E 004°00'0 0.0
2017-Sep-06 04:59N 51°57' E 004°00'0 0.0
2017-Sep-06 04:29N 51°57' E 004°00'0 0.0
2017-Sep-06 03:59N 51°57' E 004°00'0 0.0
2017-Sep-06 03:29N 51°57' E 004°00'0 0.0
2017-Sep-06 02:59N 51°57' E 004°00'0 0.0
2017-Sep-06 02:29N 51°57' E 004°00'0 0.0
2017-Sep-06 01:59N 51°57' E 004°00'0 0.0
2017-Sep-06 01:29N 51°57' E 004°00'0 0.0
2017-Sep-06 00:59N 51°57' E 004°00'0 0.0
2017-Sep-06 00:26N 51°57' E 004°00'0 0.0
2017-Sep-05 23:56N 51°57' E 004°00'0 0.0
2017-Sep-05 23:29N 51°57' E 004°00'0 0.0
2017-Sep-05 22:59N 51°57' E 004°00'0 0.0
2017-Sep-05 22:29N 51°57' E 004°00'0 0.0
2017-Sep-05 21:59N 51°57' E 004°00'0 0.0
2017-Sep-05 21:29N 51°57' E 004°00'0 0.0
2017-Sep-05 20:59N 51°57' E 004°00'0 0.0
2017-Sep-05 20:30N 51°57' E 004°00'1 2.5
2017-Sep-05 20:00N 51°59' E 004°00'3 5.9
2017-Sep-05 19:30N 51°58' E 004°05'3 7.0
2017-Sep-05 19:01N 51°60' E 004°01'713.2
2017-Sep-05 18:30N 52°01' E 003°50'4 7.7
2017-Sep-05 18:00N 52°01' E 003°44'3 6.8
2017-Sep-05 17:30N 52°02' E 003°39'5 9.3
2017-Sep-05 17:01N 52°06' E 003°34'714.6
2017-Sep-05 16:30N 52°09' E 003°24'713.5
2017-Sep-05 15:58N 52°17' E 003°25'3 7.3
2017-Sep-05 15:29N 52°20' E 003°26'4 8.3
2017-Sep-05 15:00N 52°24' E 003°27'4910.8
2017-Sep-05 10:26N 53°05' E 004°13'511.5
2017-Sep-05 10:00N 53°08' E 004°20'611.1
2017-Sep-05 09:30N 53°12' E 004°25'811.1
2017-Sep-05 08:50N 53°19' E 004°30'1211.2
2017-Sep-05 07:47N 53°30' E 004°36'311.1
2017-Sep-05 07:29N 53°34' E 004°38'120 5.2
2017-Sep-04 08:27N 53°51' E 007°58'613.1
2017-Sep-04 08:00N 53°49' E 008°07'612.8
2017-Sep-04 07:30N 53°44' E 008°14'612.3
2017-Sep-04 07:00N 53°40' E 008°22'510.3
2017-Sep-04 06:30N 53°37' E 008°29'3 5.3
2017-Sep-04 06:00N 53°35' E 008°32'0 0.0
2017-Sep-04 05:30N 53°35' E 008°32'0 0.0
2017-Sep-04 05:00N 53°35' E 008°32'0 0.0
2017-Sep-04 04:30N 53°35' E 008°32'0 0.0
2017-Sep-04 04:00N 53°35' E 008°32'0 0.0
2017-Sep-04 03:30N 53°35' E 008°32'0 0.0
2017-Sep-04 03:00N 53°35' E 008°32'0 0.0
2017-Sep-04 02:30N 53°35' E 008°32'0 0.0
2017-Sep-04 02:00N 53°35' E 008°32'0 0.0
2017-Sep-04 01:30N 53°35' E 008°32'0 0.0
2017-Sep-04 01:00N 53°35' E 008°32'0 0.0
2017-Sep-04 00:30N 53°35' E 008°32'0 0.0
2017-Sep-04 00:00N 53°35' E 008°32'0 0.0
2017-Sep-03 23:30N 53°35' E 008°32'  
Track history (hours):
 
Tides and Currents Weather Stations Pressure Air Temp Water Temp Dewpoint Dewpoint Depression Visibility Wind Speed Wind Dir Waves Ship Positions

MSC Oscar

Last reported at 2017-Sep-13 23:13 UTC. Time now 2017-Sep-26 18:31 UTC.
Position N 35°31' E 017°43'.
Warning: this ship's position is 12 days out of date.

Length 396 m; draft 15 m.

Type: Ship (hazmat cat A). MMSI: 355906000.

Date/timePositionNaut miles runAvg speedWind from/ knotsBaromVisibWave heightAir tempDewpointWater temp
2017-Sep-13 23:13N 35°31' E 017°43'518.3
2017-Sep-13 22:57N 35°32' E 017°38'918.5
2017-Sep-13 22:27N 35°34' E 017°27'818.1
2017-Sep-13 22:01N 35°36' E 017°17'1318.0
2017-Sep-13 21:19N 35°40' E 017°02'2818.2
2017-Sep-13 19:47N 35°47' E 016°29'518.2
2017-Sep-13 19:30N 35°48' E 016°23'1318.0
2017-Sep-13 18:46N 35°52' E 016°07'518.0
2017-Sep-13 18:30N 35°53' E 016°01'1117.6
2017-Sep-13 17:52N 35°56' E 015°48'717.7
2017-Sep-13 17:30N 35°57' E 015°40'917.9
2017-Sep-13 17:00N 35°60' E 015°30'917.7
2017-Sep-13 16:30N 36°02' E 015°19'918.2
2017-Sep-13 15:59N 36°04' E 015°08'918.2
2017-Sep-13 15:29N 36°07' E 014°57'918.0
2017-Sep-13 15:00N 36°09' E 014°46'918.0
2017-Sep-13 14:30N 36°11' E 014°36'918.0
2017-Sep-13 14:00N 36°14' E 014°25'918.1
2017-Sep-13 13:30N 36°18' E 014°15'918.2
2017-Sep-13 13:01N 36°21' E 014°05'918.2
2017-Sep-13 12:30N 36°25' E 013°54'918.5
2017-Sep-13 12:00N 36°29' E 013°44'918.3
2017-Sep-13 11:29N 36°32' E 013°33'918.2
2017-Sep-13 11:00N 36°36' E 013°23'1018.3
2017-Sep-13 10:26N 36°40' E 013°11'5118.2
2017-Sep-13 07:38N 37°00' E 012°13'7117.9
2017-Sep-13 03:40N 37°36' E 010°55'318.6
2017-Sep-13 03:30N 37°37' E 010°52'39018.0
2017-Sep-12 05:49N 37°10' E 002°42'618.3
2017-Sep-12 05:30N 37°09' E 002°35'918.4
2017-Sep-12 05:00N 37°08' E 002°23'918.7
2017-Sep-12 04:30N 37°07' E 002°12'918.6
2017-Sep-12 04:00N 37°05' E 002°00'918.5
2017-Sep-12 03:30N 37°04' E 001°49'918.6
2017-Sep-12 03:00N 37°03' E 001°37'918.2
2017-Sep-12 02:31N 37°01' E 001°26'917.7
2017-Sep-12 02:01N 36°59' E 001°15'918.0
2017-Sep-12 01:31N 36°57' E 001°04'918.1
2017-Sep-12 01:01N 36°55' E 000°54'918.3
2017-Sep-12 00:30N 36°52' E 000°43'918.6
2017-Sep-12 00:00N 36°49' E 000°31'918.6
2017-Sep-11 23:31N 36°47' E 000°20'918.6
2017-Sep-11 23:01N 36°44' E 000°09'918.3
2017-Sep-11 22:31N 36°41' W 000°02'1118.5
2017-Sep-11 21:54N 36°39' W 000°15'718.3
2017-Sep-11 21:31N 36°37' W 000°24'1218.2
2017-Sep-11 20:52N 36°34' W 000°38'618.0
2017-Sep-11 20:31N 36°32' W 000°46'2617.9
2017-Sep-11 19:04N 36°25' W 001°17'518.1
2017-Sep-11 18:48N 36°24' W 001°22'518.2
2017-Sep-11 18:30N 36°22' W 001°29'918.1
2017-Sep-11 18:00N 36°20' W 001°40'918.1
2017-Sep-11 17:30N 36°17' W 001°50'918.0
2017-Sep-11 17:00N 36°15' W 002°01'918.1
2017-Sep-11 16:30N 36°14' W 002°12'14218.3
2017-Sep-11 08:45N 36°00' W 005°07'520.0
2017-Sep-11 08:31N 35°60' W 005°13'1019.8
2017-Sep-11 08:01N 35°58' W 005°25'8718.5
2017-Sep-11 03:19N 36°03' W 007°12'618.1
2017-Sep-11 03:00N 36°05' W 007°19'4517.8
2017-Sep-11 00:28N 36°17' W 008°13'818.0
2017-Sep-11 00:01N 36°20' W 008°23'917.9
2017-Sep-10 23:30N 36°22' W 008°34'1018.0
2017-Sep-10 22:58N 36°25' W 008°45'818.1
2017-Sep-10 22:30N 36°28' W 008°55'918.3
2017-Sep-10 22:00N 36°31' W 009°05'918.4
2017-Sep-10 21:30N 36°35' W 009°16'918.4
2017-Sep-10 21:01N 36°41' W 009°24'1018.1
2017-Sep-10 20:27N 36°49' W 009°32'818.3
2017-Sep-10 20:01N 36°57' W 009°35'3318.1
2017-Sep-10 18:11N 37°29' W 009°46'318.5
2017-Sep-10 18:00N 37°32' W 009°47'918.6
2017-Sep-10 17:30N 37°41' W 009°50'918.3
2017-Sep-10 17:01N 37°50' W 009°53'918.1
2017-Sep-10 16:31N 37°59' W 009°55'918.2
2017-Sep-10 16:01N 38°08' W 009°57'917.8
2017-Sep-10 15:31N 38°17' W 009°59'917.8
2017-Sep-10 15:01N 38°25' W 010°02'1818.5
2017-Sep-10 14:01N 38°43' W 010°06'918.6
2017-Sep-10 13:30N 38°53' W 010°07'918.6
2017-Sep-10 13:00N 39°02' W 010°07'918.6
2017-Sep-10 12:31N 39°11' W 010°07'1018.9
2017-Sep-10 12:00N 39°21' W 010°06'918.6
2017-Sep-10 11:30N 39°30' W 010°06'65018.0
2017-Sep-08 23:20N 49°31' W 004°17'719.0
2017-Sep-08 22:57N 49°34' W 004°07'818.9
2017-Sep-08 22:31N 49°38' W 003°55'918.8
2017-Sep-08 22:00N 49°43' W 003°43'918.5
2017-Sep-08 21:31N 49°47' W 003°30'918.4
2017-Sep-08 21:01N 49°52' W 003°18'918.2
2017-Sep-08 20:31N 49°56' W 003°05'917.7
2017-Sep-08 20:01N 49°60' W 002°53'917.6
2017-Sep-08 19:31N 50°02' W 002°40'1617.7
2017-Sep-08 18:36N 50°06' W 002°15'517.8
2017-Sep-08 18:20N 50°08' W 002°09'618.2
2017-Sep-08 18:00N 50°11' W 002°00'918.1
2017-Sep-08 17:31N 50°14' W 001°47'918.3
2017-Sep-08 17:00N 50°17' W 001°33'1019.2
2017-Sep-08 16:30N 50°19' W 001°19'1019.9
2017-Sep-08 16:00N 50°22' W 001°04'1019.6
2017-Sep-08 15:30N 50°25' W 000°49'919.0
2017-Sep-08 15:00N 50°26' W 000°35'1019.6
2017-Sep-08 14:30N 50°29' W 000°19'1019.3
2017-Sep-08 14:01N 50°30' W 000°05'919.0
2017-Sep-08 13:31N 50°32' E 000°10'918.3
2017-Sep-08 13:01N 50°35' E 000°24'917.8
2017-Sep-08 12:31N 50°38' E 000°37'918.3
2017-Sep-08 12:01N 50°43' E 000°49'917.9
2017-Sep-08 11:31N 50°48' E 001°01'917.8
2017-Sep-08 11:00N 50°53' E 001°13'917.4
2017-Sep-08 10:31N 50°58' E 001°23'1019.1
2017-Sep-08 10:01N 51°05' E 001°33'1020.6
2017-Sep-08 09:31N 51°12' E 001°45'1020.9
2017-Sep-08 09:01N 51°21' E 001°54'1020.5
2017-Sep-08 08:31N 51°30' E 002°01'1019.1
2017-Sep-08 08:00N 51°37' E 002°12'918.9
2017-Sep-08 07:30N 51°44' E 002°22'1318.6
2017-Sep-08 06:50N 51°53' E 002°36'2317.5
2017-Sep-08 05:32N 52°03' E 003°10'618.1
2017-Sep-08 05:11N 52°03' E 003°20'417.0
2017-Sep-08 04:56N 52°03' E 003°27'615.2
2017-Sep-08 04:31N 52°03' E 003°37'713.7
2017-Sep-08 04:00N 52°02' E 003°49'4 7.6
2017-Sep-08 03:30N 52°02' E 003°55'4 7.6
2017-Sep-08 03:00N 52°00' E 004°00'4 7.2
2017-Sep-08 02:30N 51°58' E 004°05'2 3.3
2017-Sep-08 02:00N 51°58' E 004°03'2 3.3
2017-Sep-08 01:30N 51°58' E 003°60'1 1.6
2017-Sep-08 00:59N 51°57' E 004°00'0 0.1
2017-Sep-08 00:29N 51°57' E 004°00'0 0.0
2017-Sep-07 23:59N 51°57' E 004°00'0 0.0
2017-Sep-07 23:29N 51°57' E 004°00'0 0.0
2017-Sep-07 22:59N 51°57' E 004°00'0 0.0
2017-Sep-07 22:30N 51°57' E 004°00'0 0.0
2017-Sep-07 21:59N 51°57' E 004°00'0 0.0
2017-Sep-07 21:29N 51°57' E 004°00'0 0.0
2017-Sep-07 20:59N 51°57' E 004°00'0 0.0
2017-Sep-07 20:29N 51°57' E 004°00'0 0.0
2017-Sep-07 19:59N 51°57' E 004°00'0 0.0
2017-Sep-07 19:29N 51°57' E 004°00'0 0.0
2017-Sep-07 18:59N 51°57' E 004°00'0 0.0
2017-Sep-07 18:29N 51°57' E 004°00'0 0.0
2017-Sep-07 17:59N 51°57' E 004°00'0 0.0
2017-Sep-07 17:30N 51°57' E 004°00'0 0.0
2017-Sep-07 16:59N 51°57' E 004°00'0 0.0
2017-Sep-07 16:29N 51°57' E 004°00'0 0.0
2017-Sep-07 15:59N 51°57' E 004°00'0 0.0
2017-Sep-07 15:29N 51°57' E 004°00'0 0.0
2017-Sep-07 14:59N 51°57' E 004°00'0 0.0
2017-Sep-07 14:29N 51°57' E 004°00'0 0.0
2017-Sep-07 13:59N 51°57' E 004°00'0 0.0
2017-Sep-07 13:29N 51°57' E 004°00'0 0.0
2017-Sep-07 12:59N 51°57' E 004°00'0 0.0
2017-Sep-07 12:29N 51°57' E 004°00'0 0.0
2017-Sep-07 11:59N 51°57' E 004°00'0 0.0
2017-Sep-07 11:29N 51°57' E 004°00'0 0.0
2017-Sep-07 10:59N 51°57' E 004°00'0 0.0
2017-Sep-07 10:29N 51°57' E 004°00'0 0.0
2017-Sep-07 09:59N 51°57' E 004°00'0 0.0
2017-Sep-07 09:29N 51°57' E 004°00'0 0.0
2017-Sep-07 08:59N 51°57' E 004°00'0 0.0
2017-Sep-07 08:29N 51°57' E 004°00'0 0.0
2017-Sep-07 07:59N 51°57' E 004°00'0 0.0
2017-Sep-07 07:29N 51°57' E 004°00'0 0.0
2017-Sep-07 06:59N 51°57' E 004°00'0 0.0
2017-Sep-07 06:29N 51°57' E 004°00'0 0.0
2017-Sep-07 05:59N 51°57' E 004°00'0 0.0
2017-Sep-07 05:29N 51°57' E 004°00'0 0.0
2017-Sep-07 04:59N 51°57' E 004°00'0 0.0
2017-Sep-07 04:29N 51°57' E 004°00'0 0.0
2017-Sep-07 03:59N 51°57' E 004°00'0 0.0
2017-Sep-07 03:29N 51°57' E 004°00'0 0.0
2017-Sep-07 02:59N 51°57' E 004°00'0 0.0
2017-Sep-07 02:29N 51°57' E 004°00'0 0.0
2017-Sep-07 01:59N 51°57' E 004°00'0 0.0
2017-Sep-07 01:29N 51°57' E 004°00'0 0.0
2017-Sep-07 00:59N 51°57' E 004°00'0 0.0
2017-Sep-07 00:29N 51°57' E 004°00'0 0.0
2017-Sep-06 23:59N 51°57' E 004°00'0 0.0
2017-Sep-06 23:29N 51°57' E 004°00'0 0.0
2017-Sep-06 22:59N 51°57' E 004°00'0 0.0
2017-Sep-06 22:29N 51°57' E 004°00'0 0.0
2017-Sep-06 21:59N 51°57' E 004°00'0 0.0
2017-Sep-06 21:29N 51°57' E 004°00'0 0.0
2017-Sep-06 20:59N 51°57' E 004°00'0 0.0
2017-Sep-06 20:29N 51°57' E 004°00'0 0.0
2017-Sep-06 19:59N 51°57' E 004°00'0 0.0
2017-Sep-06 19:29N 51°57' E 004°00'0 0.0
2017-Sep-06 18:59N 51°57' E 004°00'0 0.0
2017-Sep-06 18:29N 51°57' E 004°00'0 0.0
2017-Sep-06 17:59N 51°57' E 004°00'0 0.0
2017-Sep-06 17:29N 51°57' E 004°00'0 0.0
2017-Sep-06 16:59N 51°57' E 004°00'0 0.0
2017-Sep-06 16:29N 51°57' E 004°00'0 0.0
2017-Sep-06 15:59N 51°57' E 004°00'0 0.0
2017-Sep-06 15:29N 51°57' E 004°00'0 0.0
2017-Sep-06 14:59N 51°57' E 004°00'0 0.0
2017-Sep-06 14:29N 51°57' E 004°00'0 0.0
2017-Sep-06 13:59N 51°57' E 004°00'0 0.0
2017-Sep-06 13:29N 51°57' E 004°00'0 0.0
2017-Sep-06 12:59N 51°57' E 004°00'0 0.0
2017-Sep-06 12:29N 51°57' E 004°00'0 0.0
2017-Sep-06 11:59N 51°57' E 004°00'0 0.0
2017-Sep-06 11:29N 51°57' E 004°00'0 0.0
2017-Sep-06 10:56N 51°57' E 004°00'0 0.0
2017-Sep-06 10:29N 51°57' E 004°00'0 0.0
2017-Sep-06 09:56N 51°57' E 004°00'0 0.0
2017-Sep-06 09:29N 51°57' E 004°00'0 0.0
2017-Sep-06 08:59N 51°57' E 004°00'0 0.0
2017-Sep-06 08:29N 51°57' E 004°00'0 0.0
2017-Sep-06 07:59N 51°57' E 004°00'0 0.0
2017-Sep-06 07:29N 51°57' E 004°00'0 0.0
2017-Sep-06 06:59N 51°57' E 004°00'0 0.0
2017-Sep-06 06:29N 51°57' E 004°00'0 0.0
2017-Sep-06 05:59N 51°57' E 004°00'0 0.0
2017-Sep-06 05:29N 51°57' E 004°00'0 0.0
2017-Sep-06 04:59N 51°57' E 004°00'0 0.0
2017-Sep-06 04:29N 51°57' E 004°00'0 0.0
2017-Sep-06 03:59N 51°57' E 004°00'0 0.0
2017-Sep-06 03:29N 51°57' E 004°00'0 0.0
2017-Sep-06 02:59N 51°57' E 004°00'0 0.0
2017-Sep-06 02:29N 51°57' E 004°00'0 0.0
2017-Sep-06 01:59N 51°57' E 004°00'0 0.0
2017-Sep-06 01:29N 51°57' E 004°00'0 0.0
2017-Sep-06 00:59N 51°57' E 004°00'0 0.0
2017-Sep-06 00:26N 51°57' E 004°00'0 0.0
2017-Sep-05 23:56N 51°57' E 004°00'0 0.0
2017-Sep-05 23:29N 51°57' E 004°00'0 0.0
2017-Sep-05 22:59N 51°57' E 004°00'0 0.0
2017-Sep-05 22:29N 51°57' E 004°00'0 0.0
2017-Sep-05 21:59N 51°57' E 004°00'0 0.0
2017-Sep-05 21:29N 51°57' E 004°00'0 0.0
2017-Sep-05 20:59N 51°57' E 004°00'0 0.0
2017-Sep-05 20:30N 51°57' E 004°00'1 2.5
2017-Sep-05 20:00N 51°59' E 004°00'3 5.9
2017-Sep-05 19:30N 51°58' E 004°05'3 7.0
2017-Sep-05 19:01N 51°60' E 004°01'713.2
2017-Sep-05 18:30N 52°01' E 003°50'4 7.7
2017-Sep-05 18:00N 52°01' E 003°44'3 6.8
2017-Sep-05 17:30N 52°02' E 003°39'5 9.3
2017-Sep-05 17:01N 52°06' E 003°34'714.6
2017-Sep-05 16:30N 52°09' E 003°24'713.5
2017-Sep-05 15:58N 52°17' E 003°25'3 7.3
2017-Sep-05 15:29N 52°20' E 003°26'4 8.3
2017-Sep-05 15:00N 52°24' E 003°27'4910.8
2017-Sep-05 10:26N 53°05' E 004°13'511.5
2017-Sep-05 10:00N 53°08' E 004°20'611.1
2017-Sep-05 09:30N 53°12' E 004°25'811.1
2017-Sep-05 08:50N 53°19' E 004°30'1211.2
2017-Sep-05 07:47N 53°30' E 004°36'311.1
2017-Sep-05 07:29N 53°34' E 004°38'120 5.2
2017-Sep-04 08:27N 53°51' E 007°58'613.1
2017-Sep-04 08:00N 53°49' E 008°07'612.8
2017-Sep-04 07:30N 53°44' E 008°14'612.3
2017-Sep-04 07:00N 53°40' E 008°22'510.3
2017-Sep-04 06:30N 53°37' E 008°29'3 5.3
2017-Sep-04 06:00N 53°35' E 008°32'0 0.0
2017-Sep-04 05:30N 53°35' E 008°32'0 0.0
2017-Sep-04 05:00N 53°35' E 008°32'0 0.0
2017-Sep-04 04:30N 53°35' E 008°32'0 0.0
2017-Sep-04 04:00N 53°35' E 008°32'0 0.0
2017-Sep-04 03:30N 53°35' E 008°32'0 0.0
2017-Sep-04 03:00N 53°35' E 008°32'0 0.0
2017-Sep-04 02:30N 53°35' E 008°32'0 0.0
2017-Sep-04 02:00N 53°35' E 008°32'0 0.0
2017-Sep-04 01:30N 53°35' E 008°32'0 0.0
2017-Sep-04 01:00N 53°35' E 008°32'0 0.0
2017-Sep-04 00:30N 53°35' E 008°32'0 0.0
2017-Sep-04 00:00N 53°35' E 008°32'0 0.0
2017-Sep-03 23:30N 53°35' E 008°32'  

Dump ship's entire track history